createdAt,value
2022-12-24T00:01:34.604Z,16.00
2022-12-24T00:04:04.244Z,15.13
2022-12-24T00:06:32.615Z,13.50
2022-12-24T00:09:00.864Z,14.63
2022-12-24T00:11:29.206Z,15.27
2022-12-24T00:13:57.461Z,14.17
2022-12-24T00:16:25.773Z,15.03
2022-12-24T00:18:54.149Z,14.07
2022-12-24T00:21:23.821Z,16.67
2022-12-24T00:23:52.141Z,14.73
2022-12-24T00:26:20.375Z,15.47
2022-12-24T00:28:48.654Z,9.80
2022-12-24T00:31:18.142Z,14.03
2022-12-24T00:33:47.482Z,13.20
2022-12-24T00:36:15.815Z,16.53
2022-12-24T00:38:45.558Z,10.43
2022-12-24T00:41:25.647Z,16.07
2022-12-24T00:43:54.562Z,20.50
2022-12-24T00:46:23.361Z,14.43
2022-12-24T00:48:51.860Z,18.13
2022-12-24T00:51:20.518Z,20.27
2022-12-24T00:53:50.297Z,18.23
2022-12-24T00:56:19.051Z,17.87
2022-12-24T00:58:47.685Z,19.83
2022-12-24T01:01:16.402Z,14.07
2022-12-24T01:03:44.900Z,17.17
2022-12-24T01:06:13.458Z,24.93
2022-12-24T01:08:42.072Z,23.23
2022-12-24T01:11:12.263Z,22.20
2022-12-24T01:13:40.859Z,13.20
2022-12-24T01:16:15.816Z,20.13
2022-12-24T01:18:44.146Z,20.27
2022-12-24T01:21:12.392Z,25.13
2022-12-24T01:23:40.612Z,22.27
2022-12-24T01:26:08.834Z,22.70
2022-12-24T01:28:38.421Z,20.70
2022-12-24T01:31:12.077Z,19.47
2022-12-24T01:33:40.342Z,18.40
2022-12-24T01:36:08.939Z,19.40
2022-12-24T01:38:37.177Z,22.30
2022-12-24T01:41:23.193Z,21.17
2022-12-24T01:43:52.865Z,23.67
2022-12-24T01:46:22.294Z,17.10
2022-12-24T01:48:51.829Z,23.53
2022-12-24T01:51:24.752Z,21.53
2022-12-24T01:53:56.006Z,20.83
2022-12-24T01:56:25.133Z,20.43
2022-12-24T01:58:57.494Z,18.73
2022-12-24T02:01:26.220Z,23.50
2022-12-24T02:03:54.828Z,22.43
2022-12-24T02:06:23.806Z,18.60
2022-12-24T02:08:52.152Z,19.10
2022-12-24T02:11:21.886Z,17.93
2022-12-24T02:13:52.834Z,19.47
2022-12-24T02:16:27.636Z,27.93
2022-12-24T02:19:01.023Z,20.50
2022-12-24T02:21:37.237Z,24.27
2022-12-24T02:24:23.391Z,21.60
2022-12-24T02:27:18.599Z,22.07
2022-12-24T02:30:07.011Z,18.33
2022-12-24T02:32:37.322Z,22.20
2022-12-24T02:35:07.434Z,16.40
2022-12-24T02:37:37.900Z,20.50
2022-12-24T02:40:15.700Z,22.67
2022-12-24T02:42:46.202Z,24.47
2022-12-24T02:45:17.757Z,22.70
2022-12-24T02:47:47.095Z,21.70
2022-12-24T02:50:16.751Z,18.97
2022-12-24T02:52:45.806Z,21.47
2022-12-24T02:55:14.846Z,20.53
2022-12-24T02:57:50.937Z,25.23
2022-12-24T03:00:21.617Z,23.30
2022-12-24T03:02:59.087Z,22.60
2022-12-24T03:05:30.119Z,33.00
2022-12-24T03:08:01.106Z,21.77
2022-12-24T03:10:33.125Z,23.23
2022-12-24T03:13:03.619Z,23.07
2022-12-24T03:15:33.957Z,26.27
2022-12-24T03:18:02.948Z,27.03
2022-12-24T03:20:35.052Z,27.50
2022-12-24T03:23:04.157Z,25.30
2022-12-24T03:25:34.077Z,29.10
2022-12-24T03:28:03.949Z,27.67
2022-12-24T03:30:34.166Z,30.40
2022-12-24T03:33:02.652Z,28.17
2022-12-24T03:35:30.913Z,22.30
2022-12-24T03:37:59.124Z,26.60
2022-12-24T03:40:28.415Z,23.30
2022-12-24T03:42:56.626Z,28.00
2022-12-24T03:45:24.846Z,22.47
2022-12-24T03:47:54.417Z,26.63
2022-12-24T03:50:22.759Z,25.17
2022-12-24T03:52:50.952Z,27.97
2022-12-24T03:55:19.115Z,24.77
2022-12-24T03:57:47.308Z,25.77
2022-12-24T04:00:15.885Z,23.37
2022-12-24T04:02:44.236Z,22.83
2022-12-24T04:05:17.355Z,33.17
2022-12-24T04:07:45.731Z,25.27
2022-12-24T04:10:14.063Z,25.70
2022-12-24T04:12:42.300Z,27.17
2022-12-24T04:15:10.957Z,27.77
2022-12-24T04:17:39.210Z,26.33
2022-12-24T04:20:08.168Z,20.57
2022-12-24T04:22:37.786Z,17.13
2022-12-24T04:25:06.250Z,26.70
2022-12-24T04:27:34.461Z,23.10
2022-12-24T04:30:02.641Z,26.57
2022-12-24T04:32:30.885Z,26.37
2022-12-24T04:34:59.083Z,28.70
2022-12-24T04:37:27.310Z,26.90
2022-12-24T04:39:56.887Z,25.30
2022-12-24T04:42:25.141Z,25.13
2022-12-24T04:44:53.332Z,25.17
2022-12-24T04:47:21.574Z,24.93
2022-12-24T04:49:50.527Z,21.40
2022-12-24T04:52:18.747Z,22.60
2022-12-24T04:54:47.007Z,20.90
2022-12-24T04:57:16.513Z,21.33
2022-12-24T04:59:44.780Z,24.63
2022-12-24T05:02:13.327Z,24.90
2022-12-24T05:04:41.813Z,22.10
2022-12-24T05:07:10.019Z,26.07
2022-12-24T05:09:38.250Z,25.17
2022-12-24T05:12:06.534Z,24.93
2022-12-24T05:14:36.191Z,23.07
2022-12-24T05:17:04.418Z,26.40
2022-12-24T05:19:32.716Z,26.87
2022-12-24T05:22:18.517Z,26.57
2022-12-24T05:25:04.211Z,27.23
2022-12-24T05:27:32.539Z,20.90
2022-12-24T05:30:02.096Z,26.07
2022-12-24T05:32:30.292Z,20.33
2022-12-24T05:34:58.549Z,26.70
2022-12-24T05:37:26.795Z,29.03
2022-12-24T05:39:55.035Z,22.33
2022-12-24T05:42:23.280Z,36.30
2022-12-24T05:44:51.581Z,29.83
2022-12-24T05:47:21.191Z,36.63
2022-12-24T05:49:49.399Z,27.03
2022-12-24T05:52:17.719Z,26.77
2022-12-24T05:54:45.967Z,26.27
2022-12-24T05:57:14.302Z,33.13
2022-12-24T05:59:42.518Z,27.20
2022-12-24T06:02:11.046Z,29.00
2022-12-24T06:04:40.852Z,35.03
2022-12-24T06:07:09.082Z,24.90
2022-12-24T06:09:37.324Z,31.50
2022-12-24T06:12:05.811Z,32.43
2022-12-24T06:14:34.041Z,28.30
2022-12-24T06:17:02.261Z,29.43
2022-12-24T06:19:30.483Z,28.80
2022-12-24T06:22:00.102Z,28.00
2022-12-24T06:24:28.327Z,32.63
2022-12-24T06:26:56.653Z,36.50
2022-12-24T06:29:27.242Z,31.57
2022-12-24T06:31:55.759Z,32.53
2022-12-24T06:34:24.072Z,28.10
2022-12-24T06:36:52.316Z,29.07
2022-12-24T06:39:21.956Z,32.03
2022-12-24T06:41:50.180Z,33.17
2022-12-24T06:44:18.386Z,30.37
2022-12-24T06:46:56.240Z,32.30
2022-12-24T06:49:24.576Z,36.00
2022-12-24T06:51:52.822Z,34.80
2022-12-24T06:54:22.507Z,32.03
2022-12-24T06:56:50.800Z,32.43
2022-12-24T06:59:19.051Z,28.70
2022-12-24T07:01:47.551Z,28.00
2022-12-24T07:04:20.157Z,30.10
2022-12-24T07:06:49.392Z,26.20
2022-12-24T07:09:17.624Z,27.83
2022-12-24T07:11:47.284Z,32.93
2022-12-24T07:14:15.533Z,28.70
2022-12-24T07:16:43.941Z,25.20
2022-12-24T07:19:12.321Z,25.03
2022-12-24T07:21:40.788Z,28.83
2022-12-24T07:24:09.126Z,25.20
2022-12-24T07:26:37.418Z,23.00
2022-12-24T07:29:07.008Z,23.17
2022-12-24T07:31:35.314Z,24.03
2022-12-24T07:34:03.561Z,25.60
2022-12-24T07:36:31.764Z,24.83
2022-12-24T07:39:00.046Z,20.37
2022-12-24T07:41:28.374Z,26.53
2022-12-24T07:43:56.654Z,28.10
2022-12-24T07:46:26.246Z,26.43
2022-12-24T07:48:54.486Z,29.13
2022-12-24T07:51:22.739Z,27.43
2022-12-24T07:53:50.953Z,28.27
2022-12-24T07:56:19.202Z,25.03
2022-12-24T07:58:47.402Z,23.37
2022-12-24T08:01:15.694Z,25.17
2022-12-24T08:03:45.587Z,24.83
2022-12-24T08:06:13.924Z,25.47
2022-12-24T08:08:42.286Z,24.53
2022-12-24T08:11:10.486Z,23.27
2022-12-24T08:13:38.804Z,22.03
2022-12-24T08:16:07.695Z,27.37
2022-12-24T08:18:35.967Z,27.07
2022-12-24T08:21:08.522Z,28.70
2022-12-24T08:23:37.090Z,23.30
2022-12-24T08:26:08.005Z,25.67
2022-12-24T08:28:36.428Z,26.23
2022-12-24T08:31:04.719Z,18.67
2022-12-24T08:33:33.641Z,18.80
2022-12-24T08:36:02.749Z,26.10
2022-12-24T08:38:32.400Z,27.07
2022-12-24T08:41:00.639Z,24.67
2022-12-24T08:43:29.183Z,26.40
2022-12-24T08:45:57.428Z,23.53
2022-12-24T08:48:25.709Z,22.90
2022-12-24T08:50:53.974Z,27.87
2022-12-24T08:53:22.207Z,27.63
2022-12-24T08:55:55.907Z,26.10
2022-12-24T08:58:24.575Z,23.50
2022-12-24T09:00:53.002Z,29.53
2022-12-24T09:03:27.467Z,27.00
2022-12-24T09:05:56.266Z,27.20
2022-12-24T09:08:24.646Z,32.40
2022-12-24T09:10:54.324Z,26.20
2022-12-24T09:13:22.608Z,28.33
2022-12-24T09:15:55.032Z,25.67
2022-12-24T09:18:23.387Z,25.23
2022-12-24T09:20:57.001Z,28.40
2022-12-24T09:23:25.884Z,31.60
2022-12-24T09:25:55.670Z,28.97
2022-12-24T09:28:24.322Z,26.50
2022-12-24T09:30:59.823Z,29.33
2022-12-24T09:33:28.172Z,24.93
2022-12-24T09:35:56.680Z,31.20
2022-12-24T09:38:25.626Z,24.63
2022-12-24T09:40:55.366Z,26.23
2022-12-24T09:43:26.944Z,24.30
2022-12-24T09:46:03.336Z,24.97
2022-12-24T09:48:33.083Z,22.77
2022-12-24T09:51:05.020Z,23.07
2022-12-24T09:53:38.145Z,22.43
2022-12-24T09:56:09.639Z,27.57
2022-12-24T09:58:41.030Z,22.30
2022-12-24T10:01:09.887Z,19.47
2022-12-24T10:03:38.288Z,22.70
2022-12-24T10:06:09.371Z,25.90
2022-12-24T10:08:42.991Z,26.30
2022-12-24T10:11:16.919Z,18.47
2022-12-24T10:13:54.471Z,19.73
2022-12-24T10:16:26.169Z,25.60
2022-12-24T10:18:58.474Z,24.30
2022-12-24T10:21:31.538Z,26.87
2022-12-24T10:24:07.027Z,20.53
2022-12-24T10:26:38.036Z,31.97
2022-12-24T10:29:14.694Z,25.17
2022-12-24T10:31:49.308Z,21.90
2022-12-24T10:34:20.138Z,22.50
2022-12-24T10:39:47.988Z,20.17
2022-12-24T10:42:17.130Z,23.67
2022-12-24T10:44:47.743Z,21.70
2022-12-24T10:47:16.261Z,23.67
2022-12-24T10:49:47.479Z,30.63
2022-12-24T10:52:16.687Z,26.07
2022-12-24T10:54:59.756Z,27.57
2022-12-24T10:57:29.671Z,25.17
2022-12-24T10:59:59.334Z,31.03
2022-12-24T11:02:31.328Z,31.30
2022-12-24T11:05:00.469Z,25.73
2022-12-24T11:07:29.310Z,26.70
2022-12-24T11:09:58.858Z,26.10
2022-12-24T11:12:28.177Z,25.73
2022-12-24T11:15:05.614Z,26.83
2022-12-24T11:17:34.567Z,31.13
2022-12-24T11:20:04.036Z,26.30
2022-12-24T11:22:33.174Z,27.10
2022-12-24T11:25:04.309Z,27.83
2022-12-24T11:27:35.060Z,26.27
2022-12-24T11:30:30.604Z,21.77
2022-12-24T11:33:18.887Z,24.03
2022-12-24T11:35:48.375Z,20.20
2022-12-24T11:38:20.656Z,25.23
2022-12-24T11:40:50.865Z,24.30
2022-12-24T11:43:20.630Z,21.30
2022-12-24T11:45:55.557Z,26.83
2022-12-24T11:53:50.796Z,23.50
2022-12-24T11:56:37.865Z,19.57
2022-12-24T11:59:20.553Z,24.93
2022-12-24T12:01:54.410Z,20.67
2022-12-24T12:04:37.562Z,19.87
2022-12-24T12:07:28.009Z,22.30
2022-12-24T12:13:33.727Z,20.23
2022-12-24T12:20:03.011Z,18.30
2022-12-24T12:22:46.050Z,21.33
2022-12-24T12:25:50.326Z,20.83
2022-12-24T12:28:35.496Z,18.27
2022-12-24T12:31:10.359Z,19.73
2022-12-24T12:33:43.598Z,22.43
2022-12-24T12:36:14.657Z,17.20
2022-12-24T12:39:00.721Z,26.83
2022-12-24T12:45:07.266Z,20.67
2022-12-24T12:48:04.623Z,22.57
2022-12-24T12:50:35.576Z,21.37
2022-12-24T12:53:20.455Z,20.33
2022-12-24T12:55:52.217Z,18.07
2022-12-24T12:58:22.501Z,18.63
2022-12-24T13:00:54.811Z,21.33
2022-12-24T13:03:45.423Z,19.00
2022-12-24T13:06:28.294Z,16.27
2022-12-24T13:09:30.653Z,15.17
2022-12-24T13:12:08.787Z,19.47
2022-12-24T13:14:45.003Z,15.43
2022-12-24T13:17:31.868Z,17.73
2022-12-24T13:20:10.782Z,23.47
2022-12-24T13:22:43.341Z,16.40
2022-12-24T13:25:21.600Z,19.40
2022-12-24T13:27:49.954Z,18.67
2022-12-24T13:30:33.086Z,17.47
2022-12-24T13:33:03.821Z,17.53
2022-12-24T13:35:37.505Z,18.23
2022-12-24T13:38:25.714Z,17.47
2022-12-24T13:40:53.977Z,16.83
2022-12-24T13:43:22.343Z,19.27
2022-12-24T13:45:51.376Z,16.50
2022-12-24T13:48:27.133Z,19.67
2022-12-24T13:50:56.204Z,13.20
2022-12-24T13:53:29.498Z,18.50
2022-12-24T13:55:58.636Z,20.03
2022-12-24T13:58:27.575Z,14.30
2022-12-24T14:00:57.317Z,17.53
2022-12-24T14:03:28.744Z,17.87
2022-12-24T14:05:59.730Z,15.70
2022-12-24T14:08:30.124Z,23.00
2022-12-24T14:11:01.069Z,17.53
2022-12-24T14:13:47.872Z,15.63
2022-12-24T14:16:17.502Z,20.50
2022-12-24T14:18:48.515Z,15.37
2022-12-24T14:21:18.393Z,24.87
2022-12-24T14:23:51.208Z,18.90
2022-12-24T14:26:20.355Z,17.73
2022-12-24T14:28:50.625Z,16.60
2022-12-24T14:31:19.841Z,16.27
2022-12-24T14:33:49.814Z,19.07
2022-12-24T14:36:21.341Z,18.77
2022-12-24T14:38:50.038Z,21.03
2022-12-24T14:41:24.957Z,19.10
2022-12-24T14:43:56.932Z,16.00
2022-12-24T14:46:28.759Z,15.97
2022-12-24T14:49:01.495Z,17.03
2022-12-24T14:51:32.814Z,14.33
2022-12-24T14:54:25.102Z,17.60
2022-12-24T14:57:08.237Z,14.17
2022-12-24T14:59:42.234Z,18.50
2022-12-24T15:02:25.360Z,13.93
2022-12-24T15:05:12.244Z,24.43
2022-12-24T15:07:47.906Z,20.07
2022-12-24T15:10:37.145Z,20.77
2022-12-24T15:13:06.846Z,20.70
2022-12-24T15:15:35.720Z,19.37
2022-12-24T15:18:05.608Z,16.00
2022-12-24T15:20:35.563Z,19.80
2022-12-24T15:23:03.862Z,20.47
2022-12-24T15:25:33.401Z,24.97
2022-12-24T15:28:01.678Z,17.60
2022-12-24T15:30:31.293Z,22.83
2022-12-24T15:33:00.598Z,19.80
2022-12-24T15:35:52.647Z,24.20
2022-12-24T15:38:27.539Z,24.47
2022-12-24T15:40:56.464Z,20.63
2022-12-24T15:43:25.179Z,20.20
2022-12-24T15:45:54.108Z,18.37
2022-12-24T15:48:24.647Z,24.90
2022-12-24T15:50:54.598Z,21.37
2022-12-24T15:53:25.796Z,23.43
2022-12-24T15:56:06.643Z,24.90
2022-12-24T15:58:35.513Z,25.83
2022-12-24T16:01:08.508Z,25.27
2022-12-24T16:03:37.386Z,19.43
2022-12-24T16:06:06.574Z,19.97
2022-12-24T16:08:35.635Z,19.87
2022-12-24T16:11:18.854Z,23.43
2022-12-24T16:13:56.967Z,22.43
2022-12-24T16:16:35.081Z,21.77
2022-12-24T16:19:03.957Z,23.27
2022-12-24T16:21:34.150Z,21.50
2022-12-24T16:24:06.232Z,19.20
2022-12-24T16:26:36.124Z,18.27
2022-12-24T16:29:04.346Z,21.97
2022-12-24T16:31:34.287Z,27.20
2022-12-24T16:34:03.322Z,29.47
2022-12-24T16:36:32.366Z,24.47
2022-12-24T16:39:18.558Z,23.30
2022-12-24T16:42:05.719Z,19.50
2022-12-24T16:44:33.903Z,21.77
2022-12-24T16:47:02.340Z,21.10
2022-12-24T16:49:30.840Z,24.27
2022-12-24T16:51:59.122Z,21.83
2022-12-24T16:54:28.134Z,31.87
2022-12-24T16:56:57.790Z,19.33
2022-12-24T16:59:26.145Z,22.33
2022-12-24T17:01:54.516Z,24.53
2022-12-24T17:04:22.870Z,21.27
2022-12-24T17:06:51.438Z,18.57
2022-12-24T17:09:19.663Z,25.93
2022-12-24T17:11:47.973Z,25.53
2022-12-24T17:14:20.582Z,26.23
2022-12-24T17:16:49.289Z,32.67
2022-12-24T17:19:18.125Z,23.47
2022-12-24T17:21:46.519Z,25.13
2022-12-24T17:24:15.230Z,24.60
2022-12-24T17:26:43.661Z,27.70
2022-12-24T17:29:12.209Z,30.47
2022-12-24T17:31:42.958Z,28.20
2022-12-24T17:34:11.300Z,26.13
2022-12-24T17:36:40.200Z,20.23
2022-12-24T17:39:08.520Z,21.10
2022-12-24T17:41:36.694Z,28.10
2022-12-24T17:44:08.808Z,23.67
2022-12-24T17:46:37.186Z,20.27
2022-12-24T17:49:06.901Z,25.83
2022-12-24T17:51:38.928Z,25.33
2022-12-24T17:54:11.642Z,26.47
2022-12-24T17:56:39.886Z,27.93
2022-12-24T17:59:08.111Z,23.33
2022-12-24T18:01:36.598Z,20.37
2022-12-24T18:04:05.645Z,24.83
2022-12-24T18:06:35.553Z,29.10
2022-12-24T18:09:04.001Z,33.03
2022-12-24T18:11:33.855Z,30.70
2022-12-24T18:14:02.919Z,27.27
2022-12-24T18:16:32.135Z,23.67
2022-12-24T18:19:00.749Z,29.57
2022-12-24T18:21:30.486Z,30.63
2022-12-24T18:24:00.873Z,24.33
2022-12-24T18:26:30.218Z,25.57
2022-12-24T18:28:59.983Z,26.63
2022-12-24T18:31:29.774Z,24.87
2022-12-24T18:33:58.488Z,27.40
2022-12-24T18:36:26.754Z,20.87
2022-12-24T18:38:55.049Z,23.00
2022-12-24T18:41:25.727Z,22.23
2022-12-24T18:43:54.085Z,24.87
2022-12-24T18:46:23.530Z,29.10
2022-12-24T18:48:52.231Z,21.00
2022-12-24T18:51:22.093Z,24.53
2022-12-24T18:53:50.585Z,24.47
2022-12-24T18:56:23.046Z,26.03
2022-12-24T18:58:54.137Z,25.40
2022-12-24T19:01:25.756Z,29.40
2022-12-24T19:03:54.124Z,25.50
2022-12-24T19:06:23.113Z,24.10
2022-12-24T19:09:00.650Z,28.03
2022-12-24T19:11:30.273Z,22.93
2022-12-24T19:14:00.008Z,25.73
2022-12-24T19:16:28.895Z,33.07
2022-12-24T19:18:57.224Z,32.50
2022-12-24T19:21:25.557Z,27.70
2022-12-24T19:23:53.821Z,25.27
2022-12-24T19:26:22.558Z,25.97
2022-12-24T19:28:50.875Z,29.23
2022-12-24T19:31:21.706Z,26.63
2022-12-24T19:33:50.948Z,31.40
2022-12-24T19:36:20.132Z,35.17
2022-12-24T19:38:48.593Z,33.40
2022-12-24T19:41:17.599Z,31.93
2022-12-24T19:43:46.860Z,30.90
2022-12-24T19:46:15.998Z,27.83
2022-12-24T19:48:46.061Z,29.17
2022-12-24T19:51:14.332Z,32.70
2022-12-24T19:53:42.519Z,33.80
2022-12-24T19:56:10.759Z,28.63
2022-12-24T19:58:38.987Z,30.00
2022-12-24T20:01:14.499Z,33.20
2022-12-24T20:03:43.558Z,34.37
2022-12-24T20:06:13.253Z,41.80
2022-12-24T20:08:41.876Z,30.03
2022-12-24T20:11:10.730Z,33.93
2022-12-24T20:13:39.758Z,29.93
2022-12-24T20:16:09.159Z,29.33
2022-12-24T20:18:37.500Z,32.30
2022-12-24T20:21:06.968Z,32.93
2022-12-24T20:23:38.911Z,24.00
2022-12-24T20:26:07.843Z,25.40
2022-12-24T20:28:36.964Z,32.73
2022-12-24T20:31:10.678Z,26.87
2022-12-24T20:33:38.957Z,28.23
2022-12-24T20:36:07.503Z,36.73
2022-12-24T20:38:37.192Z,36.00
2022-12-24T20:41:06.332Z,37.40
2022-12-24T20:43:38.465Z,34.30
2022-12-24T20:46:09.928Z,30.33
2022-12-24T20:48:38.512Z,29.70
2022-12-24T20:51:07.634Z,26.70
2022-12-24T20:53:39.216Z,29.13
2022-12-24T20:56:07.974Z,30.47
2022-12-24T20:58:36.434Z,29.07
2022-12-24T21:01:09.314Z,34.13
2022-12-24T21:03:37.589Z,31.90
2022-12-24T21:06:06.067Z,31.37
2022-12-24T21:08:34.362Z,29.07
2022-12-24T21:11:21.390Z,27.20
2022-12-24T21:13:49.625Z,24.63
2022-12-24T21:16:17.949Z,29.37
2022-12-24T21:18:46.233Z,32.23
2022-12-24T21:21:14.525Z,32.83
2022-12-24T21:23:42.775Z,26.27
2022-12-24T21:26:12.407Z,27.57
2022-12-24T21:28:40.856Z,27.10
2022-12-24T21:31:12.410Z,22.10
2022-12-24T21:33:40.911Z,24.23
2022-12-24T21:36:09.524Z,26.50
2022-12-24T21:38:37.775Z,26.70
2022-12-24T21:41:06.741Z,27.10
2022-12-24T21:43:36.975Z,27.00
2022-12-24T21:46:07.526Z,33.60
2022-12-24T21:48:53.524Z,27.10
2022-12-24T21:51:21.754Z,26.60
2022-12-24T21:54:07.476Z,31.37
2022-12-24T21:56:56.576Z,32.57
2022-12-24T21:59:27.124Z,33.27
2022-12-24T22:01:55.956Z,27.03
2022-12-24T22:04:24.625Z,31.23
2022-12-24T22:07:10.598Z,29.27
2022-12-24T22:09:56.473Z,31.20
2022-12-24T22:12:24.925Z,38.37
2022-12-24T22:14:54.558Z,35.33
2022-12-24T22:17:25.491Z,39.40
2022-12-24T22:19:54.368Z,38.43
2022-12-24T22:22:22.661Z,32.07
2022-12-24T22:24:50.979Z,33.67
2022-12-24T22:27:19.349Z,33.03
2022-12-24T22:29:47.655Z,37.80
2022-12-24T22:32:17.204Z,28.07
2022-12-24T22:34:45.426Z,34.37
2022-12-24T22:37:13.638Z,38.77
2022-12-24T22:39:41.918Z,35.67
2022-12-24T22:42:10.166Z,33.53
2022-12-24T22:44:38.396Z,31.17
2022-12-24T22:47:06.710Z,31.90
2022-12-24T22:49:37.639Z,35.47
2022-12-24T22:52:06.099Z,35.70
2022-12-24T22:54:34.379Z,34.63
2022-12-24T22:57:02.622Z,33.03
2022-12-24T22:59:30.842Z,36.97
2022-12-24T23:01:59.255Z,31.93
2022-12-24T23:04:27.742Z,33.07
2022-12-24T23:06:57.334Z,31.00
2022-12-24T23:09:25.558Z,36.53
2022-12-24T23:11:53.770Z,36.07
2022-12-24T23:14:40.261Z,35.17
2022-12-24T23:17:08.573Z,28.67
2022-12-24T23:19:36.855Z,35.27
2022-12-24T23:22:07.472Z,34.73
2022-12-24T23:24:37.951Z,40.53
2022-12-24T23:27:06.199Z,33.97
2022-12-24T23:29:34.762Z,31.30
2022-12-24T23:32:03.071Z,27.97
2022-12-24T23:34:31.397Z,40.13
2022-12-24T23:36:59.613Z,37.63
2022-12-24T23:39:29.233Z,32.37
2022-12-24T23:41:57.444Z,28.97
2022-12-24T23:44:31.978Z,36.40
2022-12-24T23:47:01.003Z,38.43
2022-12-24T23:49:29.348Z,38.37
2022-12-24T23:51:57.557Z,32.33
2022-12-24T23:54:25.749Z,34.83
2022-12-24T23:56:56.281Z,32.27
2022-12-24T23:59:24.499Z,31.93
